createdAt,value
2019-05-25T00:02:08.697Z,14.32
2019-05-25T00:04:39.331Z,14.28
2019-05-25T00:07:06.145Z,14.27
2019-05-25T00:09:32.927Z,13.76
2019-05-25T00:11:59.892Z,13.62
2019-05-25T00:14:26.531Z,13.66
2019-05-25T00:16:53.226Z,13.97
2019-05-25T00:19:19.833Z,14.06
2019-05-25T00:21:46.729Z,14.00
2019-05-25T00:24:13.422Z,13.92
2019-05-25T00:26:40.450Z,13.86
2019-05-25T00:29:07.121Z,13.67
2019-05-25T00:31:33.904Z,13.85
2019-05-25T00:34:00.772Z,13.82
2019-05-25T00:36:27.777Z,13.69
2019-05-25T00:38:54.899Z,13.86
2019-05-25T00:41:21.585Z,13.74
2019-05-25T00:43:48.401Z,13.77
2019-05-25T00:46:16.983Z,13.62
2019-05-25T00:48:43.525Z,13.30
2019-05-25T00:51:10.294Z,13.18
2019-05-25T00:53:39.702Z,13.49
2019-05-25T00:56:06.327Z,13.62
2019-05-25T00:58:32.997Z,13.65
2019-05-25T01:01:00.044Z,13.59
2019-05-25T01:03:26.773Z,13.48
2019-05-25T01:05:53.448Z,13.48
2019-05-25T01:08:20.062Z,13.43
2019-05-25T01:10:46.754Z,13.22
2019-05-25T01:13:13.422Z,13.13
2019-05-25T01:15:40.024Z,13.23
2019-05-25T01:18:06.735Z,13.33
2019-05-25T01:20:33.501Z,13.33
2019-05-25T01:23:00.220Z,13.23
2019-05-25T01:25:27.279Z,13.24
2019-05-25T01:27:53.986Z,13.13
2019-05-25T01:30:20.921Z,12.79
2019-05-25T01:32:47.504Z,12.72
2019-05-25T01:35:14.411Z,12.74
2019-05-25T01:37:41.257Z,12.46
2019-05-25T01:40:09.326Z,12.18
2019-05-25T01:42:36.190Z,12.28
2019-05-25T01:45:05.449Z,12.25
2019-05-25T01:47:32.304Z,12.14
2019-05-25T01:49:58.886Z,12.13
2019-05-25T01:52:25.642Z,12.02
2019-05-25T01:54:59.910Z,11.87
2019-05-25T01:57:20.957Z,12.07
2019-05-25T01:59:47.622Z,12.21
2019-05-25T02:02:14.382Z,12.32
2019-05-25T02:04:41.144Z,12.32
2019-05-25T02:07:07.966Z,12.19
2019-05-25T02:09:34.618Z,12.41
2019-05-25T02:12:01.488Z,12.42
2019-05-25T02:14:28.358Z,12.45
2019-05-25T02:16:55.109Z,12.41
2019-05-25T02:19:21.999Z,12.36
2019-05-25T02:21:49.664Z,12.12
2019-05-25T02:24:16.322Z,12.15
2019-05-25T02:26:42.976Z,12.28
2019-05-25T02:29:09.895Z,12.30
2019-05-25T02:31:36.663Z,12.11
2019-05-25T02:34:03.594Z,11.78
2019-05-25T02:36:30.256Z,11.99
2019-05-25T02:38:57.073Z,12.22
2019-05-25T02:41:24.359Z,12.03
2019-05-25T02:43:50.911Z,11.90
2019-05-25T02:46:17.628Z,11.73
2019-05-25T02:48:44.504Z,11.80
2019-05-25T02:51:11.577Z,11.81
2019-05-25T02:53:38.257Z,11.90
2019-05-25T02:56:05.020Z,11.96
2019-05-25T02:58:31.588Z,11.63
2019-05-25T03:00:58.477Z,11.53
2019-05-25T03:03:25.488Z,11.61
2019-05-25T03:05:54.668Z,11.65
2019-05-25T03:08:21.630Z,11.59
2019-05-25T03:10:49.383Z,11.60
2019-05-25T03:13:16.927Z,11.69
2019-05-25T03:15:43.852Z,11.47
2019-05-25T03:18:10.400Z,11.39
2019-05-25T03:20:37.107Z,11.55
2019-05-25T03:23:03.899Z,11.60
2019-05-25T03:25:30.537Z,11.62
2019-05-25T03:27:57.115Z,11.86
2019-05-25T03:30:29.509Z,11.92
2019-05-25T03:32:56.525Z,11.56
2019-05-25T03:35:23.067Z,11.51
2019-05-25T03:37:49.678Z,11.54
2019-05-25T03:40:16.545Z,11.53
2019-05-25T03:42:43.953Z,11.60
2019-05-25T03:45:10.970Z,11.80
2019-05-25T03:47:37.648Z,11.83
2019-05-25T03:50:05.669Z,12.12
2019-05-25T03:52:32.572Z,12.20
2019-05-25T03:54:59.332Z,12.41
2019-05-25T03:57:26.635Z,12.51
2019-05-25T03:59:53.497Z,12.59
2019-05-25T04:02:20.063Z,12.56
2019-05-25T04:04:46.642Z,12.52
2019-05-25T04:07:13.273Z,12.37
2019-05-25T04:09:39.829Z,12.53
2019-05-25T04:12:07.819Z,12.62
2019-05-25T04:14:34.426Z,12.74
2019-05-25T04:17:01.112Z,12.52
2019-05-25T04:19:27.766Z,12.56
2019-05-25T04:21:54.474Z,12.76
2019-05-25T04:24:21.400Z,12.86
2019-05-25T04:26:48.108Z,12.88
2019-05-25T04:29:14.743Z,13.01
2019-05-25T04:31:41.431Z,13.15
2019-05-25T04:34:08.005Z,13.10
2019-05-25T04:36:34.648Z,13.40
2019-05-25T04:39:01.384Z,13.43
2019-05-25T04:41:28.026Z,13.57
2019-05-25T04:43:55.149Z,13.62
2019-05-25T04:46:21.846Z,13.86
2019-05-25T04:48:48.559Z,13.84
2019-05-25T04:51:15.181Z,13.96
2019-05-25T04:53:41.741Z,14.17
2019-05-25T04:56:08.396Z,14.47
2019-05-25T04:58:35.515Z,14.72
2019-05-25T05:01:04.210Z,14.73
2019-05-25T05:03:31.087Z,14.75
2019-05-25T05:05:57.783Z,14.76
2019-05-25T05:08:24.425Z,14.86
2019-05-25T05:10:51.110Z,15.03
2019-05-25T05:13:17.825Z,15.34
2019-05-25T05:15:44.376Z,15.52
2019-05-25T05:18:11.120Z,15.30
2019-05-25T05:20:37.909Z,15.44
2019-05-25T05:23:04.473Z,15.60
2019-05-25T05:25:31.261Z,15.74
2019-05-25T05:27:57.910Z,15.87
2019-05-25T05:30:30.273Z,16.18
2019-05-25T05:32:57.362Z,16.58
2019-05-25T05:35:24.450Z,16.77
2019-05-25T05:37:51.597Z,16.94
2019-05-25T05:40:18.518Z,17.25
2019-05-25T05:42:48.009Z,17.42
2019-05-25T05:45:14.914Z,17.58
2019-05-25T05:47:46.410Z,17.67
2019-05-25T05:50:13.842Z,17.94
2019-05-25T05:52:40.603Z,17.85
2019-05-25T05:55:11.088Z,17.99
2019-05-25T05:57:37.787Z,18.20
2019-05-25T06:00:09.591Z,18.55
2019-05-25T06:02:36.253Z,18.67
2019-05-25T06:05:05.058Z,18.80
2019-05-25T06:07:31.906Z,18.67
2019-05-25T06:09:58.640Z,18.89
2019-05-25T06:12:25.248Z,18.69
2019-05-25T06:14:52.188Z,19.18
2019-05-25T06:17:18.784Z,19.40
2019-05-25T06:19:45.488Z,19.63
2019-05-25T06:22:12.177Z,19.75
2019-05-25T06:24:38.863Z,19.86
2019-05-25T06:27:05.644Z,20.09
2019-05-25T06:29:32.275Z,20.02
2019-05-25T06:31:58.948Z,20.07
2019-05-25T06:34:26.777Z,20.08
2019-05-25T06:36:53.787Z,20.28
2019-05-25T06:39:20.491Z,20.36
2019-05-25T06:41:47.120Z,20.40
2019-05-25T06:44:13.974Z,20.61
2019-05-25T06:46:40.743Z,20.74
2019-05-25T06:49:07.379Z,20.75
2019-05-25T06:51:34.222Z,20.85
2019-05-25T06:54:01.168Z,20.69
2019-05-25T06:56:27.781Z,20.67
2019-05-25T06:58:58.002Z,20.98
2019-05-25T07:01:24.805Z,21.17
2019-05-25T07:03:51.591Z,21.20
2019-05-25T07:06:18.276Z,21.23
2019-05-25T07:08:44.995Z,21.08
2019-05-25T07:11:11.611Z,21.12
2019-05-25T07:13:38.330Z,21.26
2019-05-25T07:16:05.039Z,21.27
2019-05-25T07:18:35.175Z,21.36
2019-05-25T07:21:00.276Z,21.50
2019-05-25T07:23:27.084Z,21.55
2019-05-25T07:25:53.813Z,21.38
2019-05-25T07:28:20.574Z,21.71
2019-05-25T07:30:47.245Z,21.88
2019-05-25T07:33:14.195Z,21.86
2019-05-25T07:35:40.863Z,21.72
2019-05-25T07:38:07.558Z,21.72
2019-05-25T07:40:35.596Z,21.79
2019-05-25T07:43:02.381Z,21.51
2019-05-25T07:45:29.104Z,21.57
2019-05-25T07:47:55.830Z,21.67
2019-05-25T07:50:22.800Z,22.11
2019-05-25T07:52:49.399Z,22.00
2019-05-25T07:55:16.244Z,21.93
2019-05-25T07:57:42.844Z,22.07
2019-05-25T08:00:10.257Z,22.21
2019-05-25T08:02:37.176Z,22.00
2019-05-25T08:05:06.316Z,21.92
2019-05-25T08:07:32.943Z,22.16
2019-05-25T08:09:59.661Z,21.94
2019-05-25T08:12:26.403Z,22.19
2019-05-25T08:14:53.396Z,22.23
2019-05-25T08:17:20.162Z,22.13
2019-05-25T08:19:46.733Z,22.34
2019-05-25T08:22:13.305Z,22.49
2019-05-25T08:24:40.119Z,22.53
2019-05-25T08:27:07.932Z,22.48
2019-05-25T08:29:34.569Z,22.40
2019-05-25T08:32:01.497Z,22.50
2019-05-25T08:34:28.266Z,22.26
2019-05-25T08:36:55.115Z,21.93
2019-05-25T08:39:21.983Z,22.31
2019-05-25T08:41:48.582Z,22.61
2019-05-25T08:44:15.341Z,22.67
2019-05-25T08:46:42.162Z,22.76
2019-05-25T08:49:08.925Z,22.60
2019-05-25T08:51:35.654Z,22.71
2019-05-25T08:54:02.874Z,22.61
2019-05-25T08:56:29.703Z,22.84
2019-05-25T08:58:56.386Z,23.06
2019-05-25T09:01:23.131Z,23.10
2019-05-25T09:03:49.754Z,22.80
2019-05-25T09:06:16.554Z,23.21
2019-05-25T09:08:43.165Z,23.01
2019-05-25T09:11:10.068Z,23.02
2019-05-25T09:13:37.324Z,22.82
2019-05-25T09:16:04.175Z,22.67
2019-05-25T09:18:30.865Z,22.87
2019-05-25T09:20:57.618Z,22.98
2019-05-25T09:23:24.232Z,22.91
2019-05-25T09:25:51.121Z,22.69
2019-05-25T09:28:17.988Z,23.26
2019-05-25T09:30:44.637Z,23.50
2019-05-25T09:33:11.308Z,23.49
2019-05-25T09:35:37.957Z,23.61
2019-05-25T09:38:04.590Z,23.29
2019-05-25T09:40:32.289Z,23.73
2019-05-25T09:42:59.099Z,23.73
2019-05-25T09:45:25.783Z,23.74
2019-05-25T09:47:52.637Z,23.84
2019-05-25T09:50:19.439Z,23.59
2019-05-25T09:52:47.329Z,23.47
2019-05-25T09:55:15.147Z,23.66
2019-05-25T09:57:42.114Z,23.90
2019-05-25T10:00:13.216Z,24.05
2019-05-25T10:02:40.622Z,23.38
2019-05-25T10:05:09.123Z,23.91
2019-05-25T10:07:35.782Z,24.08
2019-05-25T10:10:06.018Z,24.28
2019-05-25T10:12:32.853Z,23.93
2019-05-25T10:14:59.459Z,23.72
2019-05-25T10:17:26.290Z,23.71
2019-05-25T10:19:53.233Z,23.68
2019-05-25T10:22:19.932Z,24.03
2019-05-25T10:24:46.634Z,24.07
2019-05-25T10:27:13.236Z,23.73
2019-05-25T10:29:39.822Z,23.92
2019-05-25T10:32:06.380Z,23.87
2019-05-25T10:34:33.160Z,23.81
2019-05-25T10:36:59.922Z,23.70
2019-05-25T10:39:26.881Z,23.83
2019-05-25T10:41:53.577Z,23.89
2019-05-25T10:44:20.320Z,23.97
2019-05-25T10:46:47.201Z,24.22
2019-05-25T10:49:13.799Z,24.16
2019-05-25T10:51:40.714Z,24.40
2019-05-25T10:54:07.347Z,24.59
2019-05-25T10:56:34.044Z,24.72
2019-05-25T10:59:02.736Z,24.72
2019-05-25T11:01:29.527Z,24.62
2019-05-25T11:03:56.092Z,24.46
2019-05-25T11:06:22.662Z,24.43
2019-05-25T11:08:49.315Z,24.64
2019-05-25T11:11:15.906Z,24.76
2019-05-25T11:13:42.645Z,24.88
2019-05-25T11:16:09.434Z,24.98
2019-05-25T11:18:37.207Z,25.05
2019-05-25T11:21:03.841Z,24.69
2019-05-25T11:23:30.680Z,24.64
2019-05-25T11:25:57.412Z,24.95
2019-05-25T11:28:24.365Z,24.68
2019-05-25T11:30:51.055Z,24.75
2019-05-25T11:33:17.802Z,24.47
2019-05-25T11:35:44.446Z,24.98
2019-05-25T11:38:11.506Z,24.82
2019-05-25T11:40:38.362Z,24.96
2019-05-25T11:43:08.235Z,24.96
2019-05-25T11:45:34.961Z,25.19
2019-05-25T11:48:01.722Z,24.65
2019-05-25T11:50:28.735Z,25.02
2019-05-25T11:52:59.275Z,25.15
2019-05-25T11:55:26.244Z,25.48
2019-05-25T11:57:52.859Z,25.61
2019-05-25T12:00:25.252Z,25.50
2019-05-25T12:02:55.242Z,25.06
2019-05-25T12:05:23.912Z,25.01
2019-05-25T12:07:51.846Z,25.21
2019-05-25T12:10:20.573Z,24.69
2019-05-25T12:12:47.298Z,24.96
2019-05-25T12:15:15.560Z,25.06
2019-05-25T12:18:39.536Z,25.06
2019-05-25T12:21:06.398Z,25.16
2019-05-25T12:23:33.139Z,24.98
2019-05-25T12:25:59.755Z,24.99
2019-05-25T12:28:26.569Z,24.68
2019-05-25T12:30:53.204Z,24.61
2019-05-25T12:33:20.124Z,24.91
2019-05-25T12:35:46.799Z,25.16
2019-05-25T12:38:13.578Z,24.83
2019-05-25T12:40:53.220Z,24.87
2019-05-25T12:43:10.431Z,25.26
2019-05-25T12:45:37.225Z,25.12
2019-05-25T12:48:06.707Z,24.78
2019-05-25T12:50:34.419Z,24.93
2019-05-25T12:53:01.250Z,25.06
2019-05-25T12:55:28.161Z,25.10
2019-05-25T12:57:55.013Z,25.11
2019-05-25T13:00:22.496Z,25.13
2019-05-25T13:02:49.206Z,24.93
2019-05-25T13:05:16.093Z,24.78
2019-05-25T13:07:42.779Z,25.12
2019-05-25T13:10:09.883Z,25.15
2019-05-25T13:12:36.908Z,25.06
2019-05-25T13:15:05.685Z,25.21
2019-05-25T13:17:32.333Z,25.37
2019-05-25T13:19:59.051Z,25.23
2019-05-25T13:22:25.890Z,25.18
2019-05-25T13:24:52.914Z,25.05
2019-05-25T13:27:19.702Z,24.74
2019-05-25T13:29:46.662Z,24.45
2019-05-25T13:32:13.324Z,24.44
2019-05-25T13:34:41.130Z,24.37
2019-05-25T13:37:07.682Z,24.50
2019-05-25T13:40:11.766Z,24.79
2019-05-25T13:42:38.475Z,24.57
2019-05-25T13:45:07.975Z,24.22
2019-05-25T13:47:35.008Z,24.25
2019-05-25T13:50:07.004Z,24.18
2019-05-25T13:52:33.648Z,24.31
2019-05-25T13:55:00.265Z,24.44
2019-05-25T13:57:26.969Z,24.40
2019-05-25T13:59:53.868Z,24.13
2019-05-25T14:02:20.426Z,24.43
2019-05-25T14:04:47.176Z,24.86
2019-05-25T14:07:13.879Z,24.73
2019-05-25T14:09:40.691Z,24.46
2019-05-25T14:12:07.536Z,24.66
2019-05-25T14:14:34.153Z,25.01
2019-05-25T14:17:01.062Z,24.81
2019-05-25T14:19:28.043Z,24.76
2019-05-25T14:21:54.748Z,25.16
2019-05-25T14:24:21.464Z,25.17
2019-05-25T14:27:44.583Z,24.71
2019-05-25T14:30:12.448Z,25.17
2019-05-25T14:32:39.153Z,25.08
2019-05-25T14:35:06.642Z,25.35
2019-05-25T14:37:33.770Z,25.46
2019-05-25T14:40:00.461Z,25.03
2019-05-25T14:42:27.312Z,25.43
2019-05-25T14:44:55.155Z,25.25
2019-05-25T14:47:22.156Z,25.27
2019-05-25T14:49:48.706Z,25.20
2019-05-25T14:52:15.809Z,25.57
2019-05-25T14:54:42.422Z,25.82
2019-05-25T14:57:09.174Z,25.96
2019-05-25T14:59:35.884Z,26.15
2019-05-25T15:02:03.939Z,26.23
2019-05-25T15:04:31.038Z,26.10
2019-05-25T15:06:57.993Z,26.02
2019-05-25T15:09:24.823Z,25.73
2019-05-25T15:11:54.050Z,25.97
2019-05-25T15:14:20.046Z,25.52
2019-05-25T15:16:46.887Z,25.59
2019-05-25T15:19:14.196Z,25.89
2019-05-25T15:21:42.490Z,25.73
2019-05-25T15:24:09.243Z,25.54
2019-05-25T15:26:35.988Z,25.63
2019-05-25T15:29:02.895Z,25.85
2019-05-25T15:31:29.830Z,26.25
2019-05-25T15:33:56.707Z,26.14
2019-05-25T15:36:23.493Z,25.67
2019-05-25T15:38:50.108Z,25.44
2019-05-25T15:41:17.034Z,25.63
2019-05-25T15:43:43.889Z,25.74
2019-05-25T15:46:10.747Z,25.84
2019-05-25T15:48:37.471Z,26.02
2019-05-25T15:51:05.980Z,25.77
2019-05-25T15:53:33.724Z,25.73
2019-05-25T15:56:00.308Z,25.42
2019-05-25T15:58:27.218Z,25.48
2019-05-25T16:00:54.149Z,25.56
2019-05-25T16:03:21.148Z,25.63
2019-05-25T16:05:49.348Z,25.57
2019-05-25T16:08:20.095Z,25.44
2019-05-25T16:10:47.495Z,25.71
2019-05-25T16:13:16.094Z,25.58
2019-05-25T16:15:42.923Z,25.64
2019-05-25T16:18:09.881Z,25.19
2019-05-25T16:20:36.561Z,25.53
2019-05-25T16:23:03.465Z,25.24
2019-05-25T16:25:30.452Z,25.15
2019-05-25T16:27:57.149Z,25.26
2019-05-25T16:30:24.100Z,25.19
2019-05-25T16:35:20.379Z,24.98
2019-05-25T16:37:47.571Z,24.68
2019-05-25T16:40:15.625Z,24.79
2019-05-25T16:42:42.412Z,24.68
2019-05-25T16:45:09.505Z,24.40
2019-05-25T16:47:38.949Z,24.40
2019-05-25T16:50:09.450Z,24.62
2019-05-25T16:52:36.215Z,24.69
2019-05-25T16:55:05.626Z,24.37
2019-05-25T16:57:32.333Z,24.13
2019-05-25T16:59:59.060Z,23.94
2019-05-25T17:02:25.659Z,23.74
2019-05-25T17:04:53.861Z,23.45
2019-05-25T17:07:20.399Z,23.37
2019-05-25T17:09:46.971Z,23.16
2019-05-25T17:12:13.495Z,22.95
2019-05-25T17:14:40.294Z,22.98
2019-05-25T17:17:07.049Z,22.56
2019-05-25T17:19:35.264Z,22.59
2019-05-25T17:22:02.370Z,22.42
2019-05-25T17:24:29.074Z,22.15
2019-05-25T17:26:57.350Z,22.11
2019-05-25T17:29:24.036Z,22.08
2019-05-25T17:31:50.656Z,22.14
2019-05-25T17:34:19.093Z,21.76
2019-05-25T17:36:45.810Z,21.68
2019-05-25T17:39:12.691Z,21.75
2019-05-25T17:41:40.053Z,21.32
2019-05-25T17:44:07.071Z,21.52
2019-05-25T17:46:33.787Z,21.48
2019-05-25T17:49:00.497Z,21.46
2019-05-25T17:51:27.252Z,21.38
2019-05-25T17:53:54.140Z,21.39
2019-05-25T17:56:20.840Z,21.40
2019-05-25T17:58:47.623Z,20.96
2019-05-25T18:01:15.960Z,21.01
2019-05-25T18:03:43.174Z,21.12
2019-05-25T18:06:10.032Z,21.02
2019-05-25T18:08:36.746Z,20.99
2019-05-25T18:11:03.978Z,21.06
2019-05-25T18:13:30.790Z,20.91
2019-05-25T18:15:58.061Z,20.86
2019-05-25T18:18:24.721Z,20.46
2019-05-25T18:20:51.446Z,20.32
2019-05-25T18:23:18.469Z,20.49
2019-05-25T18:25:45.416Z,20.47
2019-05-25T18:28:12.137Z,20.31
2019-05-25T18:30:38.754Z,20.03
2019-05-25T18:33:05.332Z,20.10
2019-05-25T18:35:31.996Z,20.12
2019-05-25T18:37:58.706Z,20.19
2019-05-25T18:40:25.526Z,20.32
2019-05-25T18:42:52.555Z,20.15
2019-05-25T18:45:19.438Z,20.08
2019-05-25T18:47:46.006Z,19.68
2019-05-25T18:50:13.557Z,19.78
2019-05-25T18:52:44.973Z,19.76
2019-05-25T18:55:15.479Z,19.79
2019-05-25T18:57:42.302Z,19.66
2019-05-25T19:00:10.089Z,19.63
2019-05-25T19:02:37.172Z,19.62
2019-05-25T19:05:06.275Z,19.30
2019-05-25T19:07:33.269Z,19.21
2019-05-25T19:10:00.102Z,19.21
2019-05-25T19:12:29.270Z,19.13
2019-05-25T19:14:55.867Z,19.05
2019-05-25T19:17:22.636Z,18.88
2019-05-25T19:19:49.730Z,18.72
2019-05-25T19:22:16.550Z,18.67
2019-05-25T19:24:44.263Z,18.46
2019-05-25T19:27:13.637Z,18.63
2019-05-25T19:29:42.368Z,18.33
2019-05-25T19:32:09.343Z,18.39
2019-05-25T19:34:36.390Z,18.21
2019-05-25T19:37:07.562Z,17.75
2019-05-25T19:39:37.633Z,18.00
2019-05-25T19:42:04.745Z,17.83
2019-05-25T19:44:32.294Z,17.61
2019-05-25T19:46:59.154Z,17.77
2019-05-25T19:49:27.048Z,17.66
2019-05-25T19:51:54.612Z,17.33
2019-05-25T19:54:22.435Z,17.29
2019-05-25T19:56:49.296Z,17.12
2019-05-25T19:59:16.093Z,17.11
2019-05-25T20:01:43.104Z,17.19
2019-05-25T20:04:10.022Z,17.08
2019-05-25T20:06:45.891Z,17.11
2019-05-25T20:09:16.172Z,16.90
2019-05-25T20:11:43.424Z,16.90
2019-05-25T20:14:10.306Z,16.77
2019-05-25T20:16:38.533Z,16.88
2019-05-25T20:19:06.119Z,16.56
2019-05-25T20:21:35.920Z,16.67
2019-05-25T20:24:03.396Z,16.53
2019-05-25T20:26:31.115Z,16.28
2019-05-25T20:28:58.197Z,16.33
2019-05-25T20:31:25.595Z,16.20
2019-05-25T20:33:53.185Z,16.32
2019-05-25T20:36:19.899Z,16.03
2019-05-25T20:38:47.178Z,16.06
2019-05-25T20:41:14.284Z,16.05
2019-05-25T20:43:41.646Z,15.90
2019-05-25T20:46:08.212Z,15.75
2019-05-25T20:48:35.099Z,15.90
2019-05-25T20:51:03.096Z,15.62
2019-05-25T20:53:30.269Z,15.76
2019-05-25T20:55:57.748Z,15.83
2019-05-25T20:58:24.630Z,15.24
2019-05-25T21:00:52.714Z,15.50
2019-05-25T21:03:20.250Z,15.59
2019-05-25T21:05:55.646Z,14.99
2019-05-25T21:08:29.897Z,14.91
2019-05-25T21:10:57.025Z,15.01
2019-05-25T21:13:23.734Z,14.74
2019-05-25T21:15:50.536Z,14.54
2019-05-25T21:18:17.128Z,14.48
2019-05-25T21:20:43.966Z,14.25
2019-05-25T21:23:11.198Z,14.61
2019-05-25T21:25:38.384Z,14.67
2019-05-25T21:28:04.989Z,14.74
2019-05-25T21:30:31.731Z,14.67
2019-05-25T21:32:58.404Z,14.29
2019-05-25T21:35:25.411Z,14.60
2019-05-25T21:37:53.495Z,14.62
2019-05-25T21:40:20.760Z,14.41
2019-05-25T21:42:50.400Z,14.11
2019-05-25T21:45:17.775Z,14.29
2019-05-25T21:47:44.435Z,14.35
2019-05-25T21:50:13.152Z,14.12
2019-05-25T21:52:39.900Z,14.12
2019-05-25T21:55:07.914Z,14.03
2019-05-25T21:57:34.826Z,13.82
2019-05-25T22:00:03.072Z,14.03
2019-05-25T22:02:30.293Z,13.99
2019-05-25T22:04:57.010Z,14.06
2019-05-25T22:07:23.594Z,14.13
2019-05-25T22:09:50.328Z,14.04
2019-05-25T22:12:17.014Z,13.87
2019-05-25T22:14:43.725Z,13.82
2019-05-25T22:17:10.559Z,13.23
2019-05-25T22:19:39.538Z,13.16
2019-05-25T22:22:06.246Z,12.90
2019-05-25T22:24:32.830Z,13.48
2019-05-25T22:26:59.558Z,13.28
2019-05-25T22:29:26.343Z,13.25
2019-05-25T22:31:53.221Z,13.44
2019-05-25T22:34:19.813Z,13.40
2019-05-25T22:36:46.469Z,13.55
2019-05-25T22:39:13.173Z,13.52
2019-05-25T22:41:40.018Z,13.38
2019-05-25T22:44:06.646Z,13.10
2019-05-25T22:46:33.598Z,13.12
2019-05-25T22:49:00.665Z,13.21
2019-05-25T22:51:27.626Z,13.09
2019-05-25T22:53:54.541Z,12.89
2019-05-25T22:56:21.223Z,12.88
2019-05-25T22:58:48.001Z,12.64
2019-05-25T23:01:14.642Z,12.69
2019-05-25T23:03:41.346Z,12.95
2019-05-25T23:06:07.916Z,13.03
2019-05-25T23:08:34.509Z,12.73
2019-05-25T23:11:01.357Z,12.81
2019-05-25T23:13:31.502Z,12.84
2019-05-25T23:15:58.263Z,12.79
2019-05-25T23:18:24.902Z,12.62
2019-05-25T23:20:51.491Z,12.56
2019-05-25T23:23:18.421Z,12.58
2019-05-25T23:25:44.973Z,12.60
2019-05-25T23:28:11.574Z,12.58
2019-05-25T23:30:39.492Z,11.88
2019-05-25T23:33:06.416Z,12.19
2019-05-25T23:35:33.173Z,12.11
2019-05-25T23:38:03.339Z,12.22
2019-05-25T23:40:28.552Z,12.26
2019-05-25T23:42:55.329Z,12.43
2019-05-25T23:45:22.105Z,12.36
2019-05-25T23:47:48.649Z,12.28
2019-05-25T23:50:16.407Z,12.07
2019-05-25T23:52:43.137Z,12.18
2019-05-25T23:55:11.140Z,12.01
2019-05-25T23:57:39.613Z,12.15
